Time;durP1;ratioP1;P1;durP2;ratioP2;P2;SDS_P1;SDS_P2;PMS_P1;PMS_P2;Temp;Humidity;BMP_temperature;BMP_pressure;BME280_temperature;BME280_humidity;BME280_pressure;Samples;Min_cycle;Max_cycle;Signal;HPM_P1;HPM_P2
2022/11/08 00:01:53;;;;;;;12.70;5.20;;;14.40;99.90;;;;;;5015096;28;20028;-77
2022/11/08 00:04:20;;;;;;;13.32;5.72;;;14.40;99.90;;;;;;5019408;28;20137;-77
2022/11/08 00:15:00;;;;;;;13.25;5.45;;;14.30;99.90;;;;;;5016296;28;20076;-77
2022/11/08 00:17:28;;;;;;;20.70;10.45;;;14.40;99.90;;;;;;5020972;28;20034;-78
2022/11/08 00:19:54;;;;;;;17.65;4.50;;;14.40;99.90;;;;;;5016901;28;20052;-77
2022/11/08 00:22:21;;;;;;;10.05;3.78;;;14.40;99.90;;;;;;5018848;28;20026;-77
2022/11/08 00:24:46;;;;;;;11.10;4.72;;;14.30;99.90;;;;;;5024062;28;20106;-78
2022/11/08 00:27:16;;;;;;;12.25;4.07;;;14.30;99.90;;;;;;5019311;28;20058;-77
2022/11/08 00:29:42;;;;;;;11.47;4.07;;;14.30;99.90;;;;;;5025516;28;20481;-77
2022/11/08 00:32:12;;;;;;;19.52;9.38;;;14.30;99.90;;;;;;5017187;28;20026;-78
2022/11/08 00:34:38;;;;;;;13.90;4.07;;;14.20;99.90;;;;;;5021383;28;20080;-77
2022/11/08 00:37:04;;;;;;;14.38;4.15;;;14.20;99.90;;;;;;5014221;28;20022;-77
2022/11/08 00:39:30;;;;;;;16.00;4.22;;;14.20;99.90;;;;;;5015181;28;20026;-78
2022/11/08 00:41:56;;;;;;;7.05;3.45;;;14.20;99.90;;;;;;5019288;28;20026;-77
2022/11/08 00:44:22;;;;;;;12.88;4.20;;;14.20;99.90;;;;;;5041339;28;20026;-77
2022/11/08 00:46:48;;;;;;;12.30;4.30;;;14.20;99.90;;;;;;5021517;28;20076;-77
2022/11/08 00:49:14;;;;;;;12.30;4.88;;;14.10;99.90;;;;;;5020864;28;20038;-77
2022/11/08 00:51:40;;;;;;;18.65;4.75;;;14.10;99.90;;;;;;5022431;28;20043;-77
2022/11/08 00:54:07;;;;;;;11.07;4.05;;;14.20;99.90;;;;;;5030695;28;20032;-78
2022/11/08 00:56:33;;;;;;;14.90;4.22;;;14.20;99.90;;;;;;5019090;28;20498;-77
2022/11/08 00:59:00;;;;;;;13.60;4.00;;;14.30;99.90;;;;;;5028610;28;20116;-77
2022/11/08 01:01:26;;;;;;;13.80;5.00;;;14.30;99.90;;;;;;5017441;28;20049;-77
2022/11/08 01:03:52;;;;;;;7.00;3.72;;;14.30;99.90;;;;;;5016320;28;20157;-77
2022/11/08 01:06:20;;;;;;;20.63;4.70;;;14.40;99.90;;;;;;5016276;28;20080;-77
2022/11/08 01:08:46;;;;;;;9.93;4.07;;;14.40;99.90;;;;;;5025225;28;20022;-77
2022/11/08 01:11:14;;;;;;;13.80;5.05;;;14.40;99.90;;;;;;5014814;28;20080;-77
2022/11/08 01:13:41;;;;;;;11.55;3.65;;;14.40;99.90;;;;;;5014364;28;20034;-78
2022/11/08 01:16:10;;;;;;;10.63;4.35;;;14.50;99.90;;;;;;5013098;28;20427;-77
2022/11/08 01:18:36;;;;;;;8.98;3.30;;;14.50;99.90;;;;;;5020409;28;20087;-77
2022/11/08 01:21:03;;;;;;;11.57;3.45;;;14.50;99.90;;;;;;5026127;28;20030;-77
2022/11/08 01:23:29;;;;;;;13.98;3.70;;;14.50;99.90;;;;;;5017834;28;20030;-77
2022/11/08 01:25:55;;;;;;;14.57;3.58;;;14.50;99.90;;;;;;5018893;28;20029;-77
2022/11/08 01:28:21;;;;;;;13.07;3.70;;;14.60;99.90;;;;;;5030278;28;20022;-77
2022/11/08 01:30:47;;;;;;;9.60;4.32;;;14.60;99.90;;;;;;5018915;28;20508;-77
2022/11/08 01:33:14;;;;;;;12.15;4.00;;;14.60;99.90;;;;;;5020351;28;20107;-77
2022/11/08 01:35:43;;;;;;;13.30;3.95;;;14.50;99.90;;;;;;5017570;28;20019;-77
2022/11/08 01:38:09;;;;;;;12.13;3.63;;;14.50;99.90;;;;;;5013856;28;20020;-78
2022/11/08 01:40:42;;;;;;;11.90;3.58;;;14.50;99.90;;;;;;5015428;28;20034;-77
2022/11/08 01:43:30;;;;;;;8.63;3.85;;;14.50;99.90;;;;;;5017970;28;20030;-78
2022/11/08 01:46:17;;;;;;;11.90;4.25;;;14.50;99.90;;;;;;5026227;28;20437;-78
2022/11/08 01:49:17;;;;;;;19.13;5.07;;;14.40;99.90;;;;;;5025221;28;20034;-78
2022/11/08 01:51:52;;;;;;;16.13;6.00;;;14.40;99.90;;;;;;5019993;28;20516;-78
2022/11/08 01:54:29;;;;;;;11.20;4.07;;;14.40;99.90;;;;;;5029536;28;20029;-79
2022/11/08 01:56:57;;;;;;;10.95;3.50;;;14.40;99.90;;;;;;5021459;28;20033;-78
2022/11/08 01:59:23;;;;;;;15.65;4.55;;;14.40;99.90;;;;;;5031564;28;20407;-77
2022/11/08 02:01:49;;;;;;;15.02;4.25;;;14.50;99.90;;;;;;5020205;28;20022;-78
2022/11/08 02:04:15;;;;;;;15.50;3.90;;;14.40;99.90;;;;;;5015001;28;20030;-77
2022/11/08 02:06:43;;;;;;;11.25;3.85;;;14.50;99.90;;;;;;5017085;28;20040;-78
2022/11/08 02:09:12;;;;;;;21.77;5.28;;;14.50;99.90;;;;;;5019678;28;20030;-76
2022/11/08 02:11:39;;;;;;;10.00;4.15;;;14.50;99.90;;;;;;5011578;28;20040;-78
2022/11/08 02:14:06;;;;;;;22.00;6.65;;;14.60;99.90;;;;;;5020309;28;20118;-78
2022/11/08 02:16:31;;;;;;;14.30;4.78;;;14.60;99.90;;;;;;5013213;28;20057;-77
2022/11/08 02:18:58;;;;;;;9.27;3.63;;;14.60;99.90;;;;;;5022816;28;20033;-77
2022/11/08 02:21:41;;;;;;;15.98;5.03;;;14.60;99.90;;;;;;5025235;28;20018;-77
2022/11/08 02:24:11;;;;;;;23.60;5.25;;;14.50;99.90;;;;;;5031161;28;20026;-78
2022/11/08 02:26:39;;;;;;;13.57;3.92;;;14.50;99.90;;;;;;5020154;28;20022;-78
2022/11/08 02:29:23;;;;;;;18.98;5.03;;;14.50;99.90;;;;;;5020215;28;20038;-77
2022/11/08 02:31:49;;;;;;;17.02;4.13;;;14.50;99.90;;;;;;5025725;28;20060;-77
2022/11/08 02:34:15;;;;;;;10.93;4.10;;;14.50;99.90;;;;;;5015991;28;20041;-76
2022/11/08 02:36:45;;;;;;;18.92;4.28;;;14.50;99.90;;;;;;5013195;28;20018;-77
2022/11/08 02:39:10;;;;;;;10.90;4.20;;;14.40;99.90;;;;;;5026633;28;20025;-77
2022/11/08 02:41:36;;;;;;;17.38;4.53;;;14.40;99.90;;;;;;5037234;28;20367;-77
2022/11/08 02:44:02;;;;;;;9.57;3.80;;;14.40;99.90;;;;;;5024935;28;20022;-78
2022/11/08 02:46:28;;;;;;;11.80;4.32;;;14.40;99.90;;;;;;5024445;28;20050;-78
2022/11/08 02:48:54;;;;;;;15.88;4.70;;;14.50;99.90;;;;;;5027225;28;20505;-77
2022/11/08 02:51:19;;;;;;;15.65;5.90;;;14.40;99.90;;;;;;5023854;28;20025;-77
2022/11/08 02:53:45;;;;;;;12.75;3.97;;;14.40;99.90;;;;;;5017687;28;20026;-77
2022/11/08 02:56:11;;;;;;;19.92;4.00;;;14.50;99.90;;;;;;5023520;28;20040;-77
2022/11/08 02:58:37;;;;;;;13.43;4.35;;;14.40;99.90;;;;;;5028375;28;20034;-77
2022/11/08 03:01:03;;;;;;;17.13;5.68;;;14.30;99.90;;;;;;5021030;28;20111;-77
2022/11/08 03:03:28;;;;;;;20.08;5.15;;;14.20;99.90;;;;;;5020577;28;20026;-76
2022/11/08 03:05:56;;;;;;;12.75;4.65;;;14.10;99.90;;;;;;5020483;28;20026;-77
2022/11/08 03:08:21;;;;;;;16.10;4.40;;;14.00;99.90;;;;;;5019101;28;20059;-77
2022/11/08 03:10:47;;;;;;;11.35;5.57;;;13.90;99.90;;;;;;5019927;28;20065;-77
2022/11/08 03:13:13;;;;;;;19.02;5.07;;;13.90;99.90;;;;;;5015585;28;20030;-76
2022/11/08 03:15:39;;;;;;;14.88;5.30;;;13.90;99.90;;;;;;5018114;28;20037;-77
2022/11/08 03:18:05;;;;;;;15.60;4.65;;;13.90;99.90;;;;;;5018946;28;20026;-77
2022/11/08 03:20:31;;;;;;;10.57;5.25;;;13.80;99.90;;;;;;5027135;28;20495;-77
2022/11/08 03:23:02;;;;;;;17.80;4.57;;;13.70;99.90;;;;;;5020498;28;20057;-77
2022/11/08 03:25:28;;;;;;;9.55;4.72;;;13.70;99.90;;;;;;5021489;28;20018;-77
2022/11/08 03:27:54;;;;;;;14.50;5.95;;;13.60;99.90;;;;;;5025192;28;20022;-77
2022/11/08 03:30:20;;;;;;;18.05;4.78;;;13.60;99.90;;;;;;5038119;28;20117;-77
2022/11/08 03:32:46;;;;;;;13.23;4.60;;;13.50;99.90;;;;;;5018255;28;20101;-77
2022/11/08 03:35:13;;;;;;;13.38;4.63;;;13.50;99.90;;;;;;5021322;28;20113;-77
2022/11/08 03:37:39;;;;;;;18.77;6.65;;;13.50;99.90;;;;;;5013883;28;20495;-77
2022/11/08 03:40:05;;;;;;;11.75;5.35;;;13.50;99.90;;;;;;5023512;28;20051;-77
2022/11/08 03:42:31;;;;;;;21.20;5.55;;;13.40;99.90;;;;;;5032367;28;20478;-77
2022/11/08 03:44:57;;;;;;;13.65;4.82;;;13.30;99.90;;;;;;5048025;28;20168;-77
2022/11/08 03:47:22;;;;;;;20.85;6.28;;;13.30;99.90;;;;;;5023000;28;20037;-77
2022/11/08 03:49:48;;;;;;;17.40;5.93;;;13.30;99.90;;;;;;5026233;28;20026;-77
2022/11/08 03:52:14;;;;;;;16.75;6.13;;;13.30;99.90;;;;;;5020757;28;20117;-77
2022/11/08 03:54:40;;;;;;;18.73;7.60;;;13.20;99.90;;;;;;5025754;28;20021;-77
2022/11/08 03:57:05;;;;;;;22.48;7.88;;;13.20;99.90;;;;;;5024579;28;20040;-77
2022/11/08 03:59:31;;;;;;;24.33;7.38;;;13.30;99.90;;;;;;5025936;28;20026;-77
2022/11/08 04:01:57;;;;;;;21.13;7.43;;;13.20;99.90;;;;;;5015258;28;20095;-77
2022/11/08 04:04:23;;;;;;;19.42;8.43;;;13.20;99.90;;;;;;5021076;28;20028;-77
2022/11/08 04:06:48;;;;;;;25.92;10.32;;;13.20;99.90;;;;;;5015787;28;20066;-77
2022/11/08 04:09:14;;;;;;;17.98;7.10;;;13.10;99.90;;;;;;5020648;28;20022;-77
2022/11/08 04:17:08;;;;;;;14.45;5.38;;;13.30;99.90;;;;;;5015101;28;20068;-77
2022/11/08 04:22:18;;;;;;;27.15;8.38;;;13.50;99.90;;;;;;5014972;28;20032;-77
2022/11/08 04:24:44;;;;;;;20.73;6.13;;;13.50;99.90;;;;;;5022361;28;20018;-77
2022/11/08 04:27:10;;;;;;;20.15;6.00;;;13.50;99.90;;;;;;5019973;28;20653;-77
2022/11/08 04:29:36;;;;;;;16.45;6.60;;;13.60;99.90;;;;;;5024174;28;20104;-77
2022/11/08 04:32:01;;;;;;;20.02;6.32;;;13.60;99.90;;;;;;5017093;28;20109;-78
2022/11/08 04:34:27;;;;;;;18.73;5.35;;;13.70;99.90;;;;;;5018167;28;20037;-77
2022/11/08 04:36:53;;;;;;;14.00;5.30;;;13.80;99.90;;;;;;5014233;28;20092;-78
2022/11/08 04:39:19;;;;;;;15.15;5.68;;;13.90;99.90;;;;;;5017953;28;20050;-77
2022/11/08 04:41:45;;;;;;;12.65;5.00;;;14.00;99.90;;;;;;5018338;28;20030;-78
2022/11/08 04:44:10;;;;;;;17.08;5.45;;;14.10;99.90;;;;;;5022721;28;20041;-77
2022/11/08 04:46:36;;;;;;;16.52;5.03;;;14.20;99.90;;;;;;5022327;28;20026;-77
2022/11/08 04:49:02;;;;;;;21.33;5.60;;;14.20;99.90;;;;;;5025928;28;20566;-77
2022/11/08 04:51:32;;;;;;;20.52;5.90;;;14.20;99.90;;;;;;5020798;28;20025;-77
2022/11/08 04:54:00;;;;;;;13.77;5.97;;;14.30;99.90;;;;;;5024136;28;20442;-77
2022/11/08 04:56:27;;;;;;;19.88;4.90;;;14.30;99.90;;;;;;5020112;28;20034;-77
2022/11/08 04:58:56;;;;;;;21.38;4.88;;;14.30;99.90;;;;;;5016916;28;20032;-76
2022/11/08 05:01:25;;;;;;;23.02;5.25;;;14.40;99.90;;;;;;5014836;28;20034;-78
2022/11/08 05:03:52;;;;;;;12.98;4.63;;;14.40;99.90;;;;;;5016253;28;20013;-78
2022/11/08 05:06:24;;;;;;;19.27;5.22;;;14.40;99.90;;;;;;5016635;28;20396;-78
2022/11/08 05:08:51;;;;;;;11.52;5.53;;;14.50;99.90;;;;;;5018893;28;20033;-77
2022/11/08 05:11:19;;;;;;;21.92;5.15;;;14.50;99.90;;;;;;5012584;28;20022;-75
2022/11/08 05:13:46;;;;;;;20.10;4.95;;;14.50;99.90;;;;;;5017817;28;20134;-76
2022/11/08 05:16:14;;;;;;;17.15;5.25;;;14.60;99.90;;;;;;5023480;28;20054;-76
2022/11/08 05:18:41;;;;;;;13.60;4.47;;;14.50;99.90;;;;;;5020278;28;20030;-77
2022/11/08 05:23:58;;;;;;;14.38;4.50;;;14.50;99.90;;;;;;5023518;28;20045;-77
2022/11/08 05:26:24;;;;;;;18.67;5.57;;;14.50;99.90;;;;;;5016042;28;20034;-77
2022/11/08 05:28:50;;;;;;;14.80;5.13;;;14.50;99.90;;;;;;5027847;28;20030;-77
2022/11/08 05:31:16;;;;;;;19.58;4.65;;;14.50;99.90;;;;;;5020395;28;20039;-78
2022/11/08 05:33:42;;;;;;;16.67;4.80;;;14.50;99.90;;;;;;5017185;28;20030;-77
2022/11/08 05:36:10;;;;;;;11.15;5.00;;;14.50;99.90;;;;;;5016090;28;20038;-77
2022/11/08 05:38:37;;;;;;;15.55;4.47;;;14.50;99.90;;;;;;5014400;28;20110;-77
2022/11/08 05:41:17;;;;;;;19.20;4.82;;;14.70;99.90;;;;;;5020457;28;20062;-77
2022/11/08 05:43:45;;;;;;;15.13;5.10;;;14.70;99.90;;;;;;5014447;28;20025;-77
2022/11/08 05:46:12;;;;;;;13.90;5.03;;;14.70;99.90;;;;;;5013134;28;20030;-76
2022/11/08 05:48:40;;;;;;;20.85;6.05;;;14.70;99.90;;;;;;5019563;28;20025;-77
2022/11/08 05:51:06;;;;;;;13.52;5.55;;;14.70;99.90;;;;;;5019612;28;20531;-77
2022/11/08 05:53:32;;;;;;;12.45;4.10;;;14.70;99.90;;;;;;5023455;28;20049;-77
2022/11/08 05:56:00;;;;;;;11.63;4.35;;;14.70;99.90;;;;;;5016421;28;20057;-77
2022/11/08 05:58:26;;;;;;;9.57;4.68;;;14.70;99.90;;;;;;5010093;28;20033;-77
2022/11/08 06:01:05;;;;;;;9.90;4.72;;;14.70;99.90;;;;;;5025401;28;20014;-77
2022/11/08 06:03:31;;;;;;;17.13;4.18;;;14.70;99.90;;;;;;5022480;28;20056;-77
2022/11/08 06:06:06;;;;;;;18.00;4.45;;;14.70;99.90;;;;;;5028786;28;20112;-77
2022/11/08 06:08:32;;;;;;;16.10;4.30;;;14.70;99.90;;;;;;5026269;28;20512;-77
2022/11/08 06:11:10;;;;;;;12.70;4.13;;;14.80;99.90;;;;;;5021186;28;20467;-77
2022/11/08 06:13:36;;;;;;;14.10;5.18;;;14.80;99.90;;;;;;5019194;28;20017;-78
2022/11/08 06:16:05;;;;;;;12.95;4.28;;;14.70;99.90;;;;;;5017972;28;20053;-77
2022/11/08 06:18:32;;;;;;;19.25;4.85;;;14.70;99.90;;;;;;5014104;28;20029;-77
2022/11/08 06:21:04;;;;;;;14.73;5.57;;;14.80;99.90;;;;;;5020196;28;20022;-77
2022/11/08 06:23:32;;;;;;;13.35;4.90;;;14.70;99.90;;;;;;5021695;28;20042;-78
2022/11/08 06:25:59;;;;;;;9.98;4.45;;;14.80;99.90;;;;;;5018479;28;20113;-78
2022/11/08 06:28:26;;;;;;;12.85;5.95;;;14.70;99.90;;;;;;5020304;28;20032;-78
2022/11/08 06:30:52;;;;;;;13.45;5.18;;;14.70;99.90;;;;;;5032780;28;20022;-78
2022/11/08 06:33:19;;;;;;;14.40;4.80;;;14.70;99.90;;;;;;5025959;28;20106;-77
2022/11/08 06:35:45;;;;;;;16.70;5.43;;;14.60;99.90;;;;;;5031276;28;20054;-77
2022/11/08 06:38:11;;;;;;;13.13;4.50;;;14.60;99.90;;;;;;5024798;28;20061;-77
2022/11/08 06:40:38;;;;;;;13.95;4.50;;;14.70;99.90;;;;;;5030165;28;20028;-76
2022/11/08 06:43:05;;;;;;;19.00;5.82;;;14.70;99.90;;;;;;5024955;28;20029;-77
2022/11/08 06:45:31;;;;;;;17.55;6.07;;;14.60;99.90;;;;;;5026476;28;20022;-77
2022/11/08 06:48:01;;;;;;;16.67;5.00;;;14.70;99.90;;;;;;5022998;28;20022;-77
2022/11/08 06:50:29;;;;;;;14.82;5.13;;;14.70;99.90;;;;;;5024033;28;20032;-77
2022/11/08 06:53:00;;;;;;;13.90;4.43;;;14.80;99.90;;;;;;5015707;28;20072;-77
2022/11/08 06:55:26;;;;;;;;;;;14.80;99.90;;;;;;5021431;28;20022;-78
2022/11/08 06:57:52;;;;;;;18.90;4.82;;;14.80;99.90;;;;;;5018889;28;19909;-77
2022/11/08 07:00:19;;;;;;;13.73;4.50;;;14.90;99.90;;;;;;5030548;28;20061;-78
2022/11/08 07:02:50;;;;;;;15.13;4.63;;;14.90;99.90;;;;;;5020278;28;20024;-78
2022/11/08 07:05:15;;;;;;;17.08;5.13;;;14.90;99.90;;;;;;5030719;28;20052;-77
2022/11/08 07:07:41;;;;;;;15.43;5.45;;;14.90;99.90;;;;;;5019010;28;20017;-77
2022/11/08 07:10:08;;;;;;;18.25;4.47;;;14.90;99.90;;;;;;5028900;28;20025;-77
2022/11/08 07:12:33;;;;;;;19.15;5.93;;;14.90;99.90;;;;;;5014736;28;20113;-79
2022/11/08 07:14:59;;;;;;;17.83;4.68;;;14.90;99.90;;;;;;5017998;28;20077;-77
2022/11/08 07:17:25;;;;;;;16.25;5.32;;;15.00;99.90;;;;;;5012801;28;20034;-77
2022/11/08 07:19:51;;;;;;;11.30;4.38;;;15.00;99.90;;;;;;5017133;28;20097;-77
2022/11/08 07:22:17;;;;;;;18.92;5.10;;;15.00;99.90;;;;;;5012690;28;20061;-78
2022/11/08 07:24:42;;;;;;;14.52;4.53;;;15.10;99.90;;;;;;5031336;28;20018;-79
2022/11/08 07:27:08;;;;;;;14.52;4.03;;;15.10;99.90;;;;;;5013973;28;20026;-78
2022/11/08 07:29:34;;;;;;;9.68;4.72;;;15.10;99.90;;;;;;5014990;28;20359;-78
2022/11/08 07:32:00;;;;;;;13.98;4.35;;;15.20;99.90;;;;;;5011734;28;20038;-78
2022/11/08 07:34:25;;;;;;;12.18;4.93;;;15.20;99.90;;;;;;5014087;28;20117;-77
2022/11/08 07:36:51;;;;;;;17.80;4.72;;;15.30;99.90;;;;;;5012325;28;20509;-77
2022/11/08 07:39:17;;;;;;;13.10;4.63;;;15.30;99.90;;;;;;5016774;28;20032;-77
2022/11/08 07:41:43;;;;;;;14.50;4.57;;;15.40;99.90;;;;;;5022309;28;20021;-78
2022/11/08 07:44:09;;;;;;;12.55;5.43;;;15.50;99.90;;;;;;5035041;28;20032;-79
2022/11/08 07:46:35;;;;;;;10.18;3.85;;;15.60;99.90;;;;;;5026510;28;20025;-78
2022/11/08 07:49:01;;;;;;;8.82;4.50;;;15.70;99.90;;;;;;5020701;28;20044;-78
2022/11/08 07:51:26;;;;;;;8.95;4.20;;;15.80;99.90;;;;;;5012724;28;20026;-77
2022/11/08 07:53:52;;;;;;;13.73;4.35;;;15.90;99.90;;;;;;5015449;28;20060;-79
2022/11/08 07:56:18;;;;;;;14.45;4.30;;;16.10;99.90;;;;;;5029111;28;20034;-78
2022/11/08 07:58:44;;;;;;;13.43;3.92;;;16.20;99.90;;;;;;5024312;28;20022;-79
2022/11/08 08:01:10;;;;;;;14.77;5.25;;;16.30;99.90;;;;;;5013975;28;20105;-78
2022/11/08 08:03:36;;;;;;;16.27;3.95;;;16.40;99.90;;;;;;5012882;28;20105;-77
2022/11/08 08:06:02;;;;;;;16.30;4.20;;;16.50;99.90;;;;;;5014558;28;20051;-78
2022/11/08 08:08:28;;;;;;;8.82;3.55;;;16.60;99.90;;;;;;5021670;28;20022;-78
2022/11/08 08:10:59;;;;;;;13.20;4.35;;;16.70;99.90;;;;;;5033482;28;20026;-78
2022/11/08 08:13:25;;;;;;;10.18;3.58;;;16.80;99.90;;;;;;5012895;28;20088;-79
2022/11/08 08:15:51;;;;;;;22.33;4.32;;;16.90;99.90;;;;;;5015523;28;20526;-78
2022/11/08 08:18:19;;;;;;;13.95;3.75;;;17.00;99.90;;;;;;5015038;28;20030;-79
2022/11/08 08:20:46;;;;;;;12.32;3.55;;;17.10;99.90;;;;;;5027506;28;20037;-81
2022/11/08 08:23:11;;;;;;;9.07;3.60;;;17.20;99.90;;;;;;5010376;28;20022;-78
2022/11/08 08:25:37;;;;;;;13.15;4.03;;;17.30;99.90;;;;;;5008011;28;20025;-78
2022/11/08 08:28:04;;;;;;;7.78;3.15;;;17.30;99.90;;;;;;5008348;28;20022;-78
2022/11/08 08:30:32;;;;;;;8.60;3.13;;;17.40;99.90;;;;;;5012653;28;20473;-78
2022/11/08 08:33:05;;;;;;;18.27;3.55;;;17.40;99.90;;;;;;5011374;28;20030;-79
2022/11/08 08:35:33;;;;;;;6.80;3.63;;;17.50;99.90;;;;;;5015269;28;20057;-79
2022/11/08 08:38:00;;;;;;;12.32;3.72;;;17.60;99.90;;;;;;5004737;28;20034;-77
2022/11/08 08:40:26;;;;;;;7.65;3.60;;;17.60;99.90;;;;;;5026185;28;20484;-78
2022/11/08 08:42:52;;;;;;;10.02;3.70;;;17.60;99.90;;;;;;5014193;28;20019;-80
2022/11/08 08:45:18;;;;;;;11.93;4.57;;;17.60;99.90;;;;;;5036220;28;20025;-79
2022/11/08 08:47:44;;;;;;;8.10;3.22;;;17.70;99.90;;;;;;5016963;28;20399;-77
2022/11/08 08:50:10;;;;;;;13.32;3.67;;;17.80;99.90;;;;;;5011998;28;20021;-79
2022/11/08 08:52:35;;;;;;;15.77;3.47;;;17.70;99.90;;;;;;5028785;28;20401;-80
2022/11/08 08:55:01;;;;;;;8.52;3.65;;;17.70;99.90;;;;;;5018741;28;20139;-79
2022/11/08 08:57:27;;;;;;;10.45;3.25;;;17.70;99.90;;;;;;5011815;28;20083;-77
2022/11/08 08:59:53;;;;;;;14.90;3.50;;;17.80;99.90;;;;;;5017074;28;20050;-79
2022/11/08 09:02:19;;;;;;;8.70;3.55;;;17.80;99.90;;;;;;5007978;28;20465;-80
2022/11/08 09:04:44;;;;;;;12.30;3.42;;;17.90;99.90;;;;;;5022857;28;20108;-78
2022/11/08 09:07:10;;;;;;;20.23;4.90;;;17.90;99.90;;;;;;5019409;28;20040;-78
2022/11/08 09:09:36;;;;;;;18.52;3.70;;;17.90;99.90;;;;;;5023201;28;20030;-78
2022/11/08 09:12:02;;;;;;;15.43;4.20;;;17.90;99.90;;;;;;5020746;28;20026;-78
2022/11/08 09:14:28;;;;;;;10.95;4.53;;;18.00;99.90;;;;;;5021063;28;20034;-77
2022/11/08 09:16:55;;;;;;;19.67;4.55;;;18.00;99.90;;;;;;5016806;28;20039;-77
2022/11/08 09:19:20;;;;;;;10.70;3.30;;;18.00;99.90;;;;;;5018938;28;20034;-79
2022/11/08 09:21:46;;;;;;;9.98;3.10;;;18.00;99.90;;;;;;5015839;28;20029;-78
2022/11/08 09:24:12;;;;;;;11.65;3.30;;;18.00;99.90;;;;;;5025493;28;20033;-78
2022/11/08 09:26:38;;;;;;;8.60;3.97;;;18.10;99.90;;;;;;5019732;28;20521;-78
2022/11/08 09:29:04;;;;;;;13.57;3.47;;;18.10;99.90;;;;;;5030167;28;20026;-77
2022/11/08 09:31:29;;;;;;;12.40;3.00;;;18.10;99.90;;;;;;5018350;28;20022;-76
2022/11/08 09:33:55;;;;;;;17.00;6.38;;;18.00;99.90;;;;;;5012397;28;20038;-79
2022/11/08 09:36:21;;;;;;;8.93;3.58;;;18.10;99.90;;;;;;5013156;28;20023;-78
2022/11/08 09:38:47;;;;;;;13.80;4.03;;;18.00;99.90;;;;;;5021825;28;20478;-80
2022/11/08 09:41:55;;;;;;;14.57;5.15;;;18.10;99.90;;;;;;5014319;28;20041;-77
2022/11/08 09:44:21;;;;;;;10.32;3.10;;;18.10;99.90;;;;;;5021766;28;20021;-77
2022/11/08 09:46:52;;;;;;;11.30;3.92;;;18.20;99.90;;;;;;5015658;28;20029;-76
2022/11/08 09:49:24;;;;;;;;;;;18.20;99.90;;;;;;5016414;28;20112;-77
2022/11/08 09:51:50;;;;;;;13.07;3.63;;;18.20;99.90;;;;;;5011999;28;19909;-77
2022/11/08 09:54:25;;;;;;;9.00;3.60;;;18.10;99.90;;;;;;5016607;28;20073;-77
2022/11/08 09:56:52;;;;;;;16.58;5.00;;;18.10;99.90;;;;;;5029706;28;20038;-77
2022/11/08 09:59:41;;;;;;;16.13;7.32;;;18.00;99.90;;;;;;5024692;28;20018;-77
2022/11/08 10:02:19;;;;;;;23.33;10.45;;;18.00;99.90;;;;;;5020099;28;20433;-77
2022/11/08 10:05:01;;;;;;;11.77;4.00;;;18.00;99.90;;;;;;5015617;28;20018;-76
2022/11/08 10:07:55;;;;;;;12.02;4.80;;;18.00;99.90;;;;;;5020986;28;20450;-78
2022/11/08 10:10:46;;;;;;;13.52;4.32;;;18.10;99.90;;;;;;5029613;28;20033;-75
2022/11/08 10:13:28;;;;;;;12.48;4.38;;;18.00;99.90;;;;;;5032014;28;20030;-76
2022/11/08 10:15:54;;;;;;;15.73;5.10;;;18.10;99.90;;;;;;5022877;28;20049;-76
2022/11/08 10:18:56;;;;;;;20.00;6.55;;;18.20;99.90;;;;;;5017508;28;20034;-76
2022/11/08 10:21:31;;;;;;;12.57;4.05;;;18.30;99.90;;;;;;5025524;28;20691;-80
2022/11/08 10:24:07;;;;;;;15.13;4.05;;;18.50;99.90;;;;;;5032101;28;20056;-76
2022/11/08 10:26:36;;;;;;;12.10;6.00;;;18.80;99.90;;;;;;5015241;28;20022;-77
2022/11/08 10:29:20;;;;;;;20.88;8.35;;;18.90;99.90;;;;;;5013185;28;20026;-77
2022/11/08 10:31:49;;;;;;;9.10;3.63;;;19.10;99.90;;;;;;5035136;28;20041;-77
2022/11/08 10:34:21;;;;;;;22.70;9.52;;;19.20;99.90;;;;;;5016977;28;20090;-76
2022/11/08 10:36:53;;;;;;;11.50;4.50;;;19.30;99.90;;;;;;5018975;28;20026;-77
2022/11/08 10:39:27;;;;;;;9.60;3.97;;;19.30;99.90;;;;;;5017457;28;20393;-77
2022/11/08 10:41:58;;;;;;;15.32;4.50;;;19.20;99.90;;;;;;5018922;28;20030;-76
2022/11/08 10:44:26;;;;;;;6.45;3.33;;;19.30;99.90;;;;;;5028325;28;20028;-76
2022/11/08 10:46:55;;;;;;;11.77;4.30;;;19.20;99.90;;;;;;5018871;28;20033;-76
2022/11/08 10:49:27;;;;;;;10.20;4.43;;;19.30;99.90;;;;;;5026476;28;20026;-77
2022/11/08 10:51:55;;;;;;;16.25;4.50;;;19.20;99.90;;;;;;5017339;28;20091;-77
2022/11/08 10:54:41;;;;;;;8.93;3.47;;;19.20;99.90;;;;;;5022784;28;20022;-77
2022/11/08 10:57:09;;;;;;;17.15;3.85;;;19.10;99.90;;;;;;5014860;28;20117;-76
2022/11/08 10:59:35;;;;;;;8.75;3.20;;;19.20;99.90;;;;;;5014158;28;20029;-77
2022/11/08 11:02:01;;;;;;;5.68;2.88;;;19.20;99.90;;;;;;5008473;28;20038;-75
2022/11/08 11:04:29;;;;;;;8.88;2.92;;;19.20;99.90;;;;;;5025254;28;20052;-76
2022/11/08 11:07:01;;;;;;;9.05;3.22;;;19.10;99.90;;;;;;5026174;28;20026;-76
2022/11/08 11:09:27;;;;;;;16.23;3.13;;;19.00;99.90;;;;;;5020849;28;20022;-77
2022/11/08 11:11:58;;;;;;;10.38;2.72;;;19.00;99.90;;;;;;5021829;28;20026;-76
2022/11/08 11:14:24;;;;;;;11.45;2.72;;;19.00;99.90;;;;;;5021601;28;20026;-76
2022/11/08 11:16:55;;;;;;;13.90;3.53;;;19.10;99.90;;;;;;5021138;28;20061;-76
2022/11/08 11:19:21;;;;;;;;;;;19.20;99.90;;;;;;5025823;28;20045;-76
2022/11/08 11:21:54;;;;;;;10.50;3.20;;;19.20;99.90;;;;;;5024935;28;19909;-76
2022/11/08 11:24:21;;;;;;;7.78;2.70;;;19.20;99.90;;;;;;5022851;28;20104;-77
2022/11/08 11:26:56;;;;;;;14.27;3.67;;;19.20;99.90;;;;;;5022580;28;20048;-77
2022/11/08 11:29:30;;;;;;;11.38;3.75;;;19.20;99.90;;;;;;5019118;28;20026;-76
2022/11/08 11:31:57;;;;;;;12.93;2.78;;;19.40;99.90;;;;;;5014908;28;20029;-77
2022/11/08 11:34:34;;;;;;;9.02;3.15;;;19.60;99.90;;;;;;5028362;28;20085;-77
2022/11/08 11:37:12;;;;;;;13.30;3.75;;;19.80;99.90;;;;;;5017084;28;20026;-77
2022/11/08 11:39:51;;;;;;;9.35;2.95;;;20.10;99.90;;;;;;5020813;28;20037;-77
2022/11/08 11:42:19;;;;;;;10.82;3.75;;;20.40;99.90;;;;;;5021694;28;20108;-77
2022/11/08 11:45:06;;;;;;;24.10;4.03;;;20.70;99.90;;;;;;5025071;28;20033;-76
2022/11/08 11:47:46;;;;;;;10.98;2.67;;;20.70;99.90;;;;;;5016842;28;20026;-77
2022/11/08 11:50:40;;;;;;;9.45;3.15;;;20.50;99.90;;;;;;5016796;28;20029;-77
2022/11/08 11:53:21;;;;;;;6.53;2.72;;;20.50;99.90;;;;;;5019083;28;20061;-77
2022/11/08 11:56:24;;;;;;;10.48;3.15;;;20.50;99.90;;;;;;5013107;28;20041;-76
2022/11/08 11:58:55;;;;;;;7.65;3.10;;;20.80;99.90;;;;;;5029968;28;20072;-77
2022/11/08 12:01:59;;;;;;;8.68;2.97;;;20.80;99.90;;;;;;5029812;28;20035;-78
2022/11/08 12:04:53;;;;;;;9.90;2.97;;;20.60;99.90;;;;;;5015386;28;20018;-76
2022/11/08 12:07:34;;;;;;;7.82;2.70;;;20.30;99.90;;;;;;5014708;28;20077;-77
2022/11/08 12:10:05;;;;;;;10.07;2.60;;;20.20;99.90;;;;;;5016919;28;20104;-76
2022/11/08 12:12:44;;;;;;;8.65;2.95;;;20.30;99.90;;;;;;5011808;28;20037;-77
2022/11/08 12:15:22;;;;;;;10.80;2.70;;;20.30;99.90;;;;;;5015367;28;20057;-78
2022/11/08 12:17:56;;;;;;;7.10;2.53;;;20.30;99.90;;;;;;5008635;28;20033;-77
2022/11/08 12:20:22;;;;;;;5.82;2.22;;;20.20;99.90;;;;;;5016074;28;20431;-77
2022/11/08 12:22:58;;;;;;;13.82;3.53;;;20.10;99.90;;;;;;5012113;28;20088;-77
2022/11/08 12:25:54;;;;;;;12.25;3.00;;;20.00;99.90;;;;;;5016511;28;20387;-77
2022/11/08 12:28:44;;;;;;;6.40;2.42;;;20.10;99.90;;;;;;5012344;28;20030;-77
2022/11/08 12:31:28;;;;;;;9.00;2.75;;;20.20;99.90;;;;;;5013655;28;20051;-78
2022/11/08 12:34:00;;;;;;;13.23;3.13;;;20.20;99.90;;;;;;5014558;28;20133;-77
2022/11/08 12:36:41;;;;;;;9.30;3.10;;;20.20;99.90;;;;;;5028184;28;20034;-78
2022/11/08 12:39:33;;;;;;;9.95;2.40;;;20.20;99.90;;;;;;5016713;28;20542;-77
2022/11/08 12:42:09;;;;;;;12.63;2.50;;;20.20;99.90;;;;;;5011491;28;20038;-76
2022/11/08 12:44:54;;;;;;;10.75;3.28;;;20.30;99.90;;;;;;5015930;28;20022;-77
2022/11/08 12:47:53;;;;;;;12.20;3.97;;;20.30;99.90;;;;;;5010970;28;20013;-78
2022/11/08 12:50:19;;;;;;;10.15;2.92;;;20.40;99.90;;;;;;5031353;28;20475;-77
2022/11/08 12:53:26;;;;;;;15.25;5.05;;;20.40;99.90;;;;;;5008796;28;20033;-77
2022/11/08 12:55:55;;;;;;;15.77;4.47;;;20.30;99.90;;;;;;5032748;28;20081;-78
2022/11/08 12:58:47;;;;;;;9.20;3.45;;;20.20;99.90;;;;;;5014353;28;20090;-78
2022/11/08 13:01:15;;;;;;;10.10;2.88;;;20.20;99.90;;;;;;5032259;28;20514;-77
2022/11/08 13:03:44;;;;;;;11.05;3.17;;;20.20;99.90;;;;;;5018416;28;20034;-78
2022/11/08 13:06:25;;;;;;;10.00;2.85;;;20.20;99.90;;;;;;5015395;28;20089;-77
2022/11/08 13:09:06;;;;;;;10.82;3.60;;;20.30;99.90;;;;;;5016515;28;20477;-77
2022/11/08 13:11:47;;;;;;;9.90;2.88;;;20.40;99.90;;;;;;5010857;28;20040;-77